CheckWX is a tool to help pilots better visualize weather data.  It is not intended as a substitute for an official pre-flight weather briefing.

12:37:03 UTC

WAQQ TAF
Juwata Airport
Juwata, Indonesia
TAF WAQQ 221100Z 2212/2224 04003KT 9999 SCT015 BECMG 2212/2214 8000 SCT015

Mar-22@
12:00 UTC

Mar-22 @ 12:00 UTC

Mar-23@
00:00 UTC

Mar-23 @ 00:00 UTC

TAF WAQQ 221100Z 2212/2224 04003KT 9999 SCT015
Wind
  • 040° at 3 KTS
Cloud Levels
  • Scattered at 1,500' AGL

Mar-22@
12:00 UTC

Mar-22 @ 12:00 UTC

Mar-23@
00:00 UTC

Mar-23 @ 00:00 UTC

BECMG 2212/2214 8000 SCT015

Becoming

Becoming Conditions expected by Fri, Mar 22, 2019 @ 14:00 UTC

Wind
  • 040° at 3 KTS
Cloud Levels
  • Scattered at 1,500' AGL